sensor_id;sensor_type;location;lat;lon;timestamp;P1;durP1;ratioP1;P2;durP2;ratioP2
20609;SDS011;10463;52.378;9.688;2024-02-15T00:00:40;3.30;;;2.50;;
20609;SDS011;10463;52.378;9.688;2024-02-15T00:03:27;3.03;;;2.40;;
20609;SDS011;10463;52.378;9.688;2024-02-15T00:06:12;3.20;;;2.10;;
20609;SDS011;10463;52.378;9.688;2024-02-15T00:08:56;2.90;;;1.90;;
20609;SDS011;10463;52.378;9.688;2024-02-15T00:11:41;3.30;;;1.80;;
20609;SDS011;10463;52.378;9.688;2024-02-15T00:14:26;2.57;;;1.97;;
20609;SDS011;10463;52.378;9.688;2024-02-15T00:17:15;2.90;;;2.20;;
20609;SDS011;10463;52.378;9.688;2024-02-15T00:20:00;3.07;;;2.10;;
20609;SDS011;10463;52.378;9.688;2024-02-15T00:22:45;2.73;;;2.13;;
20609;SDS011;10463;52.378;9.688;2024-02-15T00:25:32;2.70;;;2.13;;
20609;SDS011;10463;52.378;9.688;2024-02-15T00:28:16;2.90;;;2.10;;
20609;SDS011;10463;52.378;9.688;2024-02-15T00:31:02;2.30;;;1.70;;
20609;SDS011;10463;52.378;9.688;2024-02-15T00:33:48;2.90;;;1.90;;
20609;SDS011;10463;52.378;9.688;2024-02-15T00:36:32;2.73;;;1.83;;
20609;SDS011;10463;52.378;9.688;2024-02-15T00:39:17;2.03;;;1.60;;
20609;SDS011;10463;52.378;9.688;2024-02-15T00:42:02;2.50;;;1.80;;
20609;SDS011;10463;52.378;9.688;2024-02-15T00:44:47;2.47;;;1.70;;
20609;SDS011;10463;52.378;9.688;2024-02-15T00:47:33;2.60;;;1.77;;
20609;SDS011;10463;52.378;9.688;2024-02-15T00:50:18;2.20;;;1.50;;
20609;SDS011;10463;52.378;9.688;2024-02-15T00:53:03;2.37;;;1.70;;
20609;SDS011;10463;52.378;9.688;2024-02-15T00:55:48;2.80;;;1.73;;
20609;SDS011;10463;52.378;9.688;2024-02-15T00:58:32;2.40;;;1.80;;
20609;SDS011;10463;52.378;9.688;2024-02-15T01:01:17;2.20;;;1.60;;
20609;SDS011;10463;52.378;9.688;2024-02-15T01:04:03;2.43;;;1.80;;
20609;SDS011;10463;52.378;9.688;2024-02-15T01:06:48;2.23;;;1.63;;
20609;SDS011;10463;52.378;9.688;2024-02-15T01:09:33;2.20;;;1.67;;
20609;SDS011;10463;52.378;9.688;2024-02-15T01:12:17;2.40;;;1.60;;
20609;SDS011;10463;52.378;9.688;2024-02-15T01:15:03;2.07;;;1.57;;
20609;SDS011;10463;52.378;9.688;2024-02-15T01:17:48;2.40;;;1.87;;
20609;SDS011;10463;52.378;9.688;2024-02-15T01:20:34;2.37;;;1.70;;
20609;SDS011;10463;52.378;9.688;2024-02-15T01:23:20;2.73;;;2.20;;
20609;SDS011;10463;52.378;9.688;2024-02-15T01:26:06;2.00;;;1.43;;
20609;SDS011;10463;52.378;9.688;2024-02-15T01:28:50;2.13;;;1.60;;
20609;SDS011;10463;52.378;9.688;2024-02-15T01:31:35;2.37;;;1.70;;
20609;SDS011;10463;52.378;9.688;2024-02-15T01:34:19;2.20;;;1.63;;
20609;SDS011;10463;52.378;9.688;2024-02-15T01:37:06;1.90;;;1.50;;
20609;SDS011;10463;52.378;9.688;2024-02-15T01:39:51;2.17;;;1.53;;
20609;SDS011;10463;52.378;9.688;2024-02-15T01:42:36;2.00;;;1.50;;
20609;SDS011;10463;52.378;9.688;2024-02-15T01:45:20;3.27;;;1.40;;
20609;SDS011;10463;52.378;9.688;2024-02-15T01:48:06;2.17;;;1.53;;
20609;SDS011;10463;52.378;9.688;2024-02-15T01:50:51;2.70;;;1.53;;
20609;SDS011;10463;52.378;9.688;2024-02-15T01:53:37;2.00;;;1.50;;
20609;SDS011;10463;52.378;9.688;2024-02-15T01:56:23;2.07;;;1.50;;
20609;SDS011;10463;52.378;9.688;2024-02-15T01:59:10;2.23;;;1.40;;
20609;SDS011;10463;52.378;9.688;2024-02-15T02:01:56;2.30;;;1.53;;
20609;SDS011;10463;52.378;9.688;2024-02-15T02:04:40;1.97;;;1.30;;
20609;SDS011;10463;52.378;9.688;2024-02-15T02:07:25;1.90;;;1.50;;
20609;SDS011;10463;52.378;9.688;2024-02-15T02:10:11;1.80;;;1.20;;
20609;SDS011;10463;52.378;9.688;2024-02-15T02:12:56;3.80;;;1.57;;
20609;SDS011;10463;52.378;9.688;2024-02-15T02:15:41;1.90;;;1.40;;
20609;SDS011;10463;52.378;9.688;2024-02-15T02:18:25;1.60;;;1.00;;
20609;SDS011;10463;52.378;9.688;2024-02-15T02:21:10;2.70;;;2.07;;
20609;SDS011;10463;52.378;9.688;2024-02-15T02:23:56;2.50;;;1.30;;
20609;SDS011;10463;52.378;9.688;2024-02-15T02:26:43;1.60;;;1.10;;
20609;SDS011;10463;52.378;9.688;2024-02-15T02:29:27;2.50;;;1.40;;
20609;SDS011;10463;52.378;9.688;2024-02-15T02:32:14;1.90;;;1.30;;
20609;SDS011;10463;52.378;9.688;2024-02-15T02:34:58;2.10;;;1.37;;
20609;SDS011;10463;52.378;9.688;2024-02-15T02:37:43;1.87;;;1.20;;
20609;SDS011;10463;52.378;9.688;2024-02-15T02:44:54;1.80;;;1.03;;
20609;SDS011;10463;52.378;9.688;2024-02-15T02:47:39;1.60;;;1.10;;
20609;SDS011;10463;52.378;9.688;2024-02-15T02:50:24;1.77;;;1.20;;
20609;SDS011;10463;52.378;9.688;2024-02-15T02:53:09;1.67;;;1.10;;
20609;SDS011;10463;52.378;9.688;2024-02-15T02:55:55;1.60;;;1.00;;
20609;SDS011;10463;52.378;9.688;2024-02-15T02:58:41;1.90;;;1.20;;
20609;SDS011;10463;52.378;9.688;2024-02-15T03:01:30;1.90;;;1.20;;
20609;SDS011;10463;52.378;9.688;2024-02-15T03:04:15;1.60;;;1.13;;
20609;SDS011;10463;52.378;9.688;2024-02-15T03:07:02;1.87;;;1.40;;
20609;SDS011;10463;52.378;9.688;2024-02-15T03:09:49;1.80;;;1.10;;
20609;SDS011;10463;52.378;9.688;2024-02-15T03:12:34;1.80;;;1.07;;
20609;SDS011;10463;52.378;9.688;2024-02-15T03:15:21;1.70;;;0.97;;
20609;SDS011;10463;52.378;9.688;2024-02-15T03:18:08;1.70;;;1.20;;
20609;SDS011;10463;52.378;9.688;2024-02-15T03:20:53;1.87;;;1.30;;
20609;SDS011;10463;52.378;9.688;2024-02-15T03:23:37;1.97;;;1.03;;
20609;SDS011;10463;52.378;9.688;2024-02-15T03:26:29;1.60;;;1.03;;
20609;SDS011;10463;52.378;9.688;2024-02-15T03:29:17;1.60;;;1.13;;
20609;SDS011;10463;52.378;9.688;2024-02-15T03:32:05;1.70;;;1.10;;
20609;SDS011;10463;52.378;9.688;2024-02-15T03:34:52;1.90;;;1.10;;
20609;SDS011;10463;52.378;9.688;2024-02-15T03:37:38;1.60;;;1.10;;
20609;SDS011;10463;52.378;9.688;2024-02-15T03:40:23;1.80;;;1.03;;
20609;SDS011;10463;52.378;9.688;2024-02-15T03:43:11;1.80;;;1.03;;
20609;SDS011;10463;52.378;9.688;2024-02-15T03:45:56;2.00;;;1.07;;
20609;SDS011;10463;52.378;9.688;2024-02-15T03:48:43;1.70;;;1.10;;
20609;SDS011;10463;52.378;9.688;2024-02-15T03:51:29;1.60;;;1.10;;
20609;SDS011;10463;52.378;9.688;2024-02-15T03:54:16;1.60;;;1.10;;
20609;SDS011;10463;52.378;9.688;2024-02-15T03:57:00;2.00;;;1.30;;
20609;SDS011;10463;52.378;9.688;2024-02-15T03:59:45;1.77;;;1.30;;
20609;SDS011;10463;52.378;9.688;2024-02-15T04:02:34;1.83;;;1.00;;
20609;SDS011;10463;52.378;9.688;2024-02-15T04:05:19;1.60;;;1.00;;
20609;SDS011;10463;52.378;9.688;2024-02-15T04:08:07;1.90;;;1.33;;
20609;SDS011;10463;52.378;9.688;2024-02-15T04:10:53;1.60;;;1.03;;
20609;SDS011;10463;52.378;9.688;2024-02-15T04:13:37;1.53;;;0.90;;
20609;SDS011;10463;52.378;9.688;2024-02-15T04:16:22;1.53;;;0.93;;
20609;SDS011;10463;52.378;9.688;2024-02-15T04:19:06;1.50;;;1.00;;
20609;SDS011;10463;52.378;9.688;2024-02-15T04:21:51;1.50;;;0.90;;
20609;SDS011;10463;52.378;9.688;2024-02-15T04:24:37;1.77;;;1.20;;
20609;SDS011;10463;52.378;9.688;2024-02-15T04:27:24;1.80;;;1.10;;
20609;SDS011;10463;52.378;9.688;2024-02-15T04:30:10;1.50;;;1.00;;
20609;SDS011;10463;52.378;9.688;2024-02-15T04:32:55;1.40;;;0.80;;
20609;SDS011;10463;52.378;9.688;2024-02-15T04:35:40;1.70;;;0.83;;
20609;SDS011;10463;52.378;9.688;2024-02-15T04:38:25;1.40;;;0.80;;
20609;SDS011;10463;52.378;9.688;2024-02-15T04:41:11;1.60;;;1.00;;
20609;SDS011;10463;52.378;9.688;2024-02-15T04:43:55;1.40;;;0.80;;
20609;SDS011;10463;52.378;9.688;2024-02-15T04:46:40;1.43;;;0.90;;
20609;SDS011;10463;52.378;9.688;2024-02-15T04:49:26;1.50;;;0.90;;
20609;SDS011;10463;52.378;9.688;2024-02-15T04:52:13;1.63;;;1.10;;
20609;SDS011;10463;52.378;9.688;2024-02-15T04:54:58;1.50;;;0.90;;
20609;SDS011;10463;52.378;9.688;2024-02-15T04:57:44;1.50;;;0.90;;
20609;SDS011;10463;52.378;9.688;2024-02-15T05:00:31;1.40;;;0.80;;
20609;SDS011;10463;52.378;9.688;2024-02-15T05:03:15;1.70;;;0.80;;
20609;SDS011;10463;52.378;9.688;2024-02-15T05:06:01;1.70;;;0.87;;
20609;SDS011;10463;52.378;9.688;2024-02-15T05:08:49;1.60;;;1.00;;
20609;SDS011;10463;52.378;9.688;2024-02-15T05:11:33;1.40;;;0.80;;
20609;SDS011;10463;52.378;9.688;2024-02-15T05:14:21;2.07;;;1.20;;
20609;SDS011;10463;52.378;9.688;2024-02-15T05:17:07;1.30;;;0.80;;
20609;SDS011;10463;52.378;9.688;2024-02-15T05:19:55;1.40;;;0.80;;
20609;SDS011;10463;52.378;9.688;2024-02-15T05:22:42;1.50;;;0.87;;
20609;SDS011;10463;52.378;9.688;2024-02-15T05:25:29;1.63;;;0.97;;
20609;SDS011;10463;52.378;9.688;2024-02-15T05:28:17;1.50;;;0.97;;
20609;SDS011;10463;52.378;9.688;2024-02-15T05:31:11;1.47;;;0.77;;
20609;SDS011;10463;52.378;9.688;2024-02-15T05:33:56;1.43;;;0.80;;
20609;SDS011;10463;52.378;9.688;2024-02-15T05:36:41;1.30;;;0.70;;
20609;SDS011;10463;52.378;9.688;2024-02-15T05:39:26;1.40;;;0.80;;
20609;SDS011;10463;52.378;9.688;2024-02-15T05:42:10;1.40;;;0.80;;
20609;SDS011;10463;52.378;9.688;2024-02-15T05:44:55;1.50;;;0.83;;
20609;SDS011;10463;52.378;9.688;2024-02-15T05:47:45;1.40;;;0.87;;
20609;SDS011;10463;52.378;9.688;2024-02-15T05:50:29;1.60;;;0.90;;
20609;SDS011;10463;52.378;9.688;2024-02-15T05:53:15;1.50;;;0.90;;
20609;SDS011;10463;52.378;9.688;2024-02-15T05:55:59;1.50;;;1.00;;
20609;SDS011;10463;52.378;9.688;2024-02-15T05:58:44;1.57;;;1.00;;
20609;SDS011;10463;52.378;9.688;2024-02-15T06:01:28;1.47;;;0.90;;
20609;SDS011;10463;52.378;9.688;2024-02-15T06:04:15;1.70;;;1.00;;
20609;SDS011;10463;52.378;9.688;2024-02-15T06:07:00;1.40;;;0.80;;
20609;SDS011;10463;52.378;9.688;2024-02-15T06:09:45;1.40;;;0.90;;
20609;SDS011;10463;52.378;9.688;2024-02-15T06:12:30;1.80;;;1.00;;
20609;SDS011;10463;52.378;9.688;2024-02-15T06:15:16;1.60;;;0.83;;
20609;SDS011;10463;52.378;9.688;2024-02-15T06:18:01;1.97;;;1.07;;
20609;SDS011;10463;52.378;9.688;2024-02-15T06:20:54;1.57;;;0.90;;
20609;SDS011;10463;52.378;9.688;2024-02-15T06:23:41;1.63;;;1.00;;
20609;SDS011;10463;52.378;9.688;2024-02-15T06:26:25;1.40;;;0.80;;
20609;SDS011;10463;52.378;9.688;2024-02-15T06:29:10;1.43;;;0.90;;
20609;SDS011;10463;52.378;9.688;2024-02-15T06:32:13;1.50;;;0.90;;
20609;SDS011;10463;52.378;9.688;2024-02-15T06:35:17;1.50;;;0.90;;
20609;SDS011;10463;52.378;9.688;2024-02-15T06:38:23;1.50;;;0.90;;
20609;SDS011;10463;52.378;9.688;2024-02-15T06:41:26;1.50;;;0.90;;
20609;SDS011;10463;52.378;9.688;2024-02-15T06:44:13;1.50;;;0.93;;
20609;SDS011;10463;52.378;9.688;2024-02-15T06:46:58;1.50;;;0.90;;
20609;SDS011;10463;52.378;9.688;2024-02-15T06:49:45;1.60;;;1.00;;
20609;SDS011;10463;52.378;9.688;2024-02-15T06:52:29;1.50;;;1.17;;
20609;SDS011;10463;52.378;9.688;2024-02-15T06:55:15;1.40;;;0.83;;
20609;SDS011;10463;52.378;9.688;2024-02-15T06:58:01;1.40;;;0.90;;
20609;SDS011;10463;52.378;9.688;2024-02-15T07:00:48;1.57;;;0.97;;
20609;SDS011;10463;52.378;9.688;2024-02-15T07:03:33;1.57;;;0.93;;
20609;SDS011;10463;52.378;9.688;2024-02-15T07:06:18;2.27;;;1.20;;
20609;SDS011;10463;52.378;9.688;2024-02-15T07:09:02;2.00;;;1.40;;
20609;SDS011;10463;52.378;9.688;2024-02-15T07:11:48;1.50;;;1.00;;
20609;SDS011;10463;52.378;9.688;2024-02-15T07:14:33;1.80;;;1.27;;
20609;SDS011;10463;52.378;9.688;2024-02-15T07:17:18;1.70;;;1.10;;
20609;SDS011;10463;52.378;9.688;2024-02-15T07:20:04;1.80;;;1.10;;
20609;SDS011;10463;52.378;9.688;2024-02-15T07:22:49;1.80;;;1.30;;
20609;SDS011;10463;52.378;9.688;2024-02-15T07:25:33;1.70;;;1.00;;
20609;SDS011;10463;52.378;9.688;2024-02-15T07:28:21;1.70;;;1.00;;
20609;SDS011;10463;52.378;9.688;2024-02-15T07:31:05;1.83;;;1.20;;
20609;SDS011;10463;52.378;9.688;2024-02-15T07:33:51;1.60;;;1.20;;
20609;SDS011;10463;52.378;9.688;2024-02-15T07:36:35;2.30;;;1.70;;
20609;SDS011;10463;52.378;9.688;2024-02-15T07:39:20;1.93;;;1.30;;
20609;SDS011;10463;52.378;9.688;2024-02-15T07:42:08;2.77;;;1.60;;
20609;SDS011;10463;52.378;9.688;2024-02-15T07:44:54;2.70;;;1.20;;
20609;SDS011;10463;52.378;9.688;2024-02-15T07:47:38;2.70;;;1.70;;
20609;SDS011;10463;52.378;9.688;2024-02-15T07:50:23;2.10;;;1.40;;
20609;SDS011;10463;52.378;9.688;2024-02-15T07:53:08;2.37;;;1.53;;
20609;SDS011;10463;52.378;9.688;2024-02-15T07:55:54;2.37;;;1.60;;
20609;SDS011;10463;52.378;9.688;2024-02-15T07:58:39;2.03;;;1.50;;
20609;SDS011;10463;52.378;9.688;2024-02-15T08:01:27;2.50;;;1.63;;
20609;SDS011;10463;52.378;9.688;2024-02-15T08:04:12;2.43;;;1.73;;
20609;SDS011;10463;52.378;9.688;2024-02-15T08:06:56;2.50;;;1.93;;
20609;SDS011;10463;52.378;9.688;2024-02-15T08:09:41;2.37;;;2.00;;
20609;SDS011;10463;52.378;9.688;2024-02-15T08:12:27;2.30;;;2.00;;
20609;SDS011;10463;52.378;9.688;2024-02-15T08:15:12;2.03;;;1.67;;
20609;SDS011;10463;52.378;9.688;2024-02-15T08:17:58;2.73;;;2.00;;
20609;SDS011;10463;52.378;9.688;2024-02-15T08:20:42;3.40;;;2.30;;
20609;SDS011;10463;52.378;9.688;2024-02-15T08:23:29;2.23;;;1.70;;
20609;SDS011;10463;52.378;9.688;2024-02-15T08:26:13;2.33;;;1.83;;
20609;SDS011;10463;52.378;9.688;2024-02-15T08:28:58;2.60;;;2.00;;
20609;SDS011;10463;52.378;9.688;2024-02-15T08:31:42;2.87;;;2.10;;
20609;SDS011;10463;52.378;9.688;2024-02-15T08:34:29;2.53;;;1.80;;
20609;SDS011;10463;52.378;9.688;2024-02-15T08:37:13;3.10;;;2.03;;
20609;SDS011;10463;52.378;9.688;2024-02-15T08:39:58;4.47;;;2.40;;
20609;SDS011;10463;52.378;9.688;2024-02-15T08:42:44;2.93;;;1.90;;
20609;SDS011;10463;52.378;9.688;2024-02-15T08:45:29;3.30;;;1.77;;
20609;SDS011;10463;52.378;9.688;2024-02-15T08:48:14;3.40;;;1.90;;
20609;SDS011;10463;52.378;9.688;2024-02-15T08:51:00;2.83;;;2.30;;
20609;SDS011;10463;52.378;9.688;2024-02-15T08:53:46;2.57;;;1.90;;
20609;SDS011;10463;52.378;9.688;2024-02-15T08:56:30;2.70;;;1.97;;
20609;SDS011;10463;52.378;9.688;2024-02-15T08:59:17;2.87;;;2.20;;
20609;SDS011;10463;52.378;9.688;2024-02-15T09:02:02;2.80;;;2.03;;
20609;SDS011;10463;52.378;9.688;2024-02-15T09:04:49;2.50;;;2.17;;
20609;SDS011;10463;52.378;9.688;2024-02-15T09:07:35;3.17;;;2.57;;
20609;SDS011;10463;52.378;9.688;2024-02-15T09:10:21;2.73;;;2.33;;
20609;SDS011;10463;52.378;9.688;2024-02-15T09:13:06;3.23;;;2.37;;
20609;SDS011;10463;52.378;9.688;2024-02-15T09:15:52;4.43;;;2.70;;
20609;SDS011;10463;52.378;9.688;2024-02-15T09:18:36;3.30;;;2.70;;
20609;SDS011;10463;52.378;9.688;2024-02-15T09:21:22;3.20;;;2.50;;
20609;SDS011;10463;52.378;9.688;2024-02-15T09:24:10;3.20;;;2.50;;
20609;SDS011;10463;52.378;9.688;2024-02-15T09:26:54;3.23;;;2.80;;
20609;SDS011;10463;52.378;9.688;2024-02-15T09:29:39;3.53;;;2.53;;
20609;SDS011;10463;52.378;9.688;2024-02-15T09:32:25;3.63;;;3.00;;
20609;SDS011;10463;52.378;9.688;2024-02-15T09:35:10;2.60;;;2.40;;
20609;SDS011;10463;52.378;9.688;2024-02-15T09:37:56;3.10;;;2.53;;
20609;SDS011;10463;52.378;9.688;2024-02-15T09:40:42;2.70;;;2.40;;
20609;SDS011;10463;52.378;9.688;2024-02-15T09:43:28;3.43;;;2.80;;
20609;SDS011;10463;52.378;9.688;2024-02-15T09:46:13;3.90;;;2.70;;
20609;SDS011;10463;52.378;9.688;2024-02-15T09:48:58;5.10;;;2.97;;
20609;SDS011;10463;52.378;9.688;2024-02-15T09:51:43;3.83;;;3.00;;
20609;SDS011;10463;52.378;9.688;2024-02-15T09:54:29;4.07;;;2.73;;
20609;SDS011;10463;52.378;9.688;2024-02-15T09:57:16;3.93;;;2.70;;
20609;SDS011;10463;52.378;9.688;2024-02-15T10:00:03;3.93;;;2.93;;
20609;SDS011;10463;52.378;9.688;2024-02-15T10:02:51;3.80;;;2.90;;
20609;SDS011;10463;52.378;9.688;2024-02-15T10:05:42;4.57;;;3.40;;
20609;SDS011;10463;52.378;9.688;2024-02-15T10:08:26;3.70;;;2.90;;
20609;SDS011;10463;52.378;9.688;2024-02-15T10:11:11;3.27;;;2.63;;
20609;SDS011;10463;52.378;9.688;2024-02-15T10:14:09;4.53;;;3.10;;
20609;SDS011;10463;52.378;9.688;2024-02-15T10:16:55;3.90;;;3.00;;
20609;SDS011;10463;52.378;9.688;2024-02-15T10:19:40;4.07;;;2.60;;
20609;SDS011;10463;52.378;9.688;2024-02-15T10:22:27;3.60;;;2.83;;
20609;SDS011;10463;52.378;9.688;2024-02-15T10:25:12;3.90;;;2.57;;
20609;SDS011;10463;52.378;9.688;2024-02-15T10:28:01;4.03;;;3.50;;
20609;SDS011;10463;52.378;9.688;2024-02-15T10:30:48;4.63;;;3.47;;
20609;SDS011;10463;52.378;9.688;2024-02-15T10:33:34;3.47;;;3.10;;
20609;SDS011;10463;52.378;9.688;2024-02-15T10:36:19;4.67;;;3.13;;
20609;SDS011;10463;52.378;9.688;2024-02-15T10:39:27;3.33;;;2.63;;
20609;SDS011;10463;52.378;9.688;2024-02-15T10:42:25;4.93;;;3.43;;
20609;SDS011;10463;52.378;9.688;2024-02-15T10:45:10;3.83;;;3.20;;
20609;SDS011;10463;52.378;9.688;2024-02-15T10:47:59;4.80;;;2.90;;
20609;SDS011;10463;52.378;9.688;2024-02-15T10:50:44;4.30;;;3.33;;
20609;SDS011;10463;52.378;9.688;2024-02-15T10:53:31;4.17;;;2.80;;
20609;SDS011;10463;52.378;9.688;2024-02-15T10:56:23;3.93;;;3.20;;
20609;SDS011;10463;52.378;9.688;2024-02-15T10:59:17;4.20;;;3.80;;
20609;SDS011;10463;52.378;9.688;2024-02-15T11:02:13;5.57;;;4.20;;
20609;SDS011;10463;52.378;9.688;2024-02-15T11:05:09;5.00;;;3.83;;
20609;SDS011;10463;52.378;9.688;2024-02-15T11:07:54;6.60;;;4.23;;
20609;SDS011;10463;52.378;9.688;2024-02-15T11:10:39;5.17;;;4.50;;
20609;SDS011;10463;52.378;9.688;2024-02-15T11:13:27;6.67;;;4.83;;
20609;SDS011;10463;52.378;9.688;2024-02-15T11:16:41;5.53;;;4.30;;
20609;SDS011;10463;52.378;9.688;2024-02-15T11:19:44;4.90;;;4.33;;
20609;SDS011;10463;52.378;9.688;2024-02-15T11:22:33;5.73;;;4.50;;
20609;SDS011;10463;52.378;9.688;2024-02-15T11:25:20;6.40;;;4.80;;
20609;SDS011;10463;52.378;9.688;2024-02-15T11:28:36;6.13;;;4.83;;
20609;SDS011;10463;52.378;9.688;2024-02-15T11:31:55;5.03;;;4.53;;
20609;SDS011;10463;52.378;9.688;2024-02-15T11:34:44;5.57;;;4.47;;
20609;SDS011;10463;52.378;9.688;2024-02-15T11:37:59;8.63;;;5.20;;
20609;SDS011;10463;52.378;9.688;2024-02-15T11:41:00;5.10;;;4.10;;
20609;SDS011;10463;52.378;9.688;2024-02-15T11:43:50;6.03;;;4.43;;
20609;SDS011;10463;52.378;9.688;2024-02-15T11:46:39;6.50;;;4.90;;
20609;SDS011;10463;52.378;9.688;2024-02-15T11:49:25;8.27;;;4.73;;
20609;SDS011;10463;52.378;9.688;2024-02-15T11:52:10;5.83;;;4.50;;
20609;SDS011;10463;52.378;9.688;2024-02-15T11:55:05;6.87;;;4.97;;
20609;SDS011;10463;52.378;9.688;2024-02-15T11:58:00;4.97;;;3.87;;
20609;SDS011;10463;52.378;9.688;2024-02-15T12:00:49;7.30;;;4.50;;
20609;SDS011;10463;52.378;9.688;2024-02-15T12:03:53;5.93;;;4.53;;
20609;SDS011;10463;52.378;9.688;2024-02-15T12:06:58;5.07;;;3.63;;
20609;SDS011;10463;52.378;9.688;2024-02-15T12:10:01;5.97;;;4.60;;
20609;SDS011;10463;52.378;9.688;2024-02-15T12:13:06;4.00;;;3.37;;
20609;SDS011;10463;52.378;9.688;2024-02-15T12:16:10;4.80;;;4.07;;
20609;SDS011;10463;52.378;9.688;2024-02-15T12:19:18;3.50;;;3.00;;
20609;SDS011;10463;52.378;9.688;2024-02-15T12:22:03;5.33;;;4.20;;
20609;SDS011;10463;52.378;9.688;2024-02-15T12:24:56;4.13;;;3.20;;
20609;SDS011;10463;52.378;9.688;2024-02-15T12:27:41;5.23;;;4.13;;
20609;SDS011;10463;52.378;9.688;2024-02-15T12:30:32;5.00;;;3.67;;
20609;SDS011;10463;52.378;9.688;2024-02-15T12:33:20;4.90;;;3.50;;
20609;SDS011;10463;52.378;9.688;2024-02-15T12:36:06;3.60;;;3.10;;
20609;SDS011;10463;52.378;9.688;2024-02-15T12:38:58;4.60;;;3.77;;
20609;SDS011;10463;52.378;9.688;2024-02-15T12:41:47;4.00;;;3.20;;
20609;SDS011;10463;52.378;9.688;2024-02-15T12:44:36;4.00;;;3.00;;
20609;SDS011;10463;52.378;9.688;2024-02-15T12:47:22;4.63;;;3.77;;
20609;SDS011;10463;52.378;9.688;2024-02-15T12:50:13;5.17;;;3.83;;
20609;SDS011;10463;52.378;9.688;2024-02-15T12:52:59;4.73;;;3.50;;
20609;SDS011;10463;52.378;9.688;2024-02-15T12:55:52;5.10;;;3.93;;
20609;SDS011;10463;52.378;9.688;2024-02-15T12:58:38;4.80;;;3.83;;
20609;SDS011;10463;52.378;9.688;2024-02-15T13:01:24;4.60;;;3.30;;
20609;SDS011;10463;52.378;9.688;2024-02-15T13:04:14;5.97;;;4.50;;
20609;SDS011;10463;52.378;9.688;2024-02-15T13:07:08;6.43;;;3.90;;
20609;SDS011;10463;52.378;9.688;2024-02-15T13:09:53;4.67;;;3.53;;
20609;SDS011;10463;52.378;9.688;2024-02-15T13:12:39;4.10;;;3.17;;
20609;SDS011;10463;52.378;9.688;2024-02-15T13:15:24;4.53;;;3.80;;
20609;SDS011;10463;52.378;9.688;2024-02-15T13:18:16;5.13;;;3.90;;
20609;SDS011;10463;52.378;9.688;2024-02-15T13:21:03;5.53;;;3.37;;
20609;SDS011;10463;52.378;9.688;2024-02-15T13:23:49;4.77;;;4.10;;
20609;SDS011;10463;52.378;9.688;2024-02-15T13:26:35;4.27;;;3.23;;
20609;SDS011;10463;52.378;9.688;2024-02-15T13:29:21;4.93;;;3.90;;
20609;SDS011;10463;52.378;9.688;2024-02-15T13:32:06;3.90;;;3.27;;
20609;SDS011;10463;52.378;9.688;2024-02-15T13:34:51;4.20;;;3.40;;
20609;SDS011;10463;52.378;9.688;2024-02-15T13:37:41;5.03;;;4.10;;
20609;SDS011;10463;52.378;9.688;2024-02-15T13:40:28;6.00;;;3.80;;
20609;SDS011;10463;52.378;9.688;2024-02-15T13:43:14;4.17;;;3.67;;
20609;SDS011;10463;52.378;9.688;2024-02-15T13:46:00;4.90;;;3.70;;
20609;SDS011;10463;52.378;9.688;2024-02-15T13:48:45;4.00;;;3.20;;
20609;SDS011;10463;52.378;9.688;2024-02-15T13:51:29;4.60;;;3.97;;
20609;SDS011;10463;52.378;9.688;2024-02-15T13:54:16;3.50;;;2.97;;
20609;SDS011;10463;52.378;9.688;2024-02-15T13:57:00;4.50;;;3.60;;
20609;SDS011;10463;52.378;9.688;2024-02-15T13:59:46;4.57;;;3.10;;
20609;SDS011;10463;52.378;9.688;2024-02-15T14:02:30;3.77;;;3.10;;
20609;SDS011;10463;52.378;9.688;2024-02-15T14:05:16;4.33;;;3.20;;
20609;SDS011;10463;52.378;9.688;2024-02-15T14:08:05;3.97;;;3.37;;
20609;SDS011;10463;52.378;9.688;2024-02-15T14:10:51;4.20;;;3.00;;
20609;SDS011;10463;52.378;9.688;2024-02-15T14:13:36;4.60;;;3.57;;
20609;SDS011;10463;52.378;9.688;2024-02-15T14:16:21;3.27;;;2.97;;
20609;SDS011;10463;52.378;9.688;2024-02-15T14:19:05;3.97;;;3.03;;
20609;SDS011;10463;52.378;9.688;2024-02-15T14:21:50;4.10;;;3.10;;
20609;SDS011;10463;52.378;9.688;2024-02-15T14:24:38;4.40;;;2.87;;
20609;SDS011;10463;52.378;9.688;2024-02-15T14:27:24;3.93;;;2.90;;
20609;SDS011;10463;52.378;9.688;2024-02-15T14:30:09;3.73;;;2.83;;
20609;SDS011;10463;52.378;9.688;2024-02-15T14:33:13;4.53;;;3.40;;
20609;SDS011;10463;52.378;9.688;2024-02-15T14:36:03;4.30;;;3.07;;
20609;SDS011;10463;52.378;9.688;2024-02-15T14:38:48;4.40;;;3.50;;
20609;SDS011;10463;52.378;9.688;2024-02-15T14:41:33;4.53;;;3.17;;
20609;SDS011;10463;52.378;9.688;2024-02-15T14:44:19;4.17;;;3.17;;
20609;SDS011;10463;52.378;9.688;2024-02-15T14:47:03;3.90;;;3.20;;
20609;SDS011;10463;52.378;9.688;2024-02-15T14:49:48;4.23;;;3.27;;
20609;SDS011;10463;52.378;9.688;2024-02-15T14:52:34;3.73;;;2.90;;
20609;SDS011;10463;52.378;9.688;2024-02-15T14:55:20;4.37;;;3.20;;
20609;SDS011;10463;52.378;9.688;2024-02-15T14:58:06;3.33;;;2.77;;
20609;SDS011;10463;52.378;9.688;2024-02-15T15:00:55;3.63;;;2.90;;
20609;SDS011;10463;52.378;9.688;2024-02-15T15:03:42;4.70;;;3.03;;
20609;SDS011;10463;52.378;9.688;2024-02-15T15:06:27;6.00;;;3.50;;
20609;SDS011;10463;52.378;9.688;2024-02-15T15:09:31;4.70;;;2.90;;
20609;SDS011;10463;52.378;9.688;2024-02-15T15:12:34;3.77;;;2.90;;
20609;SDS011;10463;52.378;9.688;2024-02-15T15:15:23;3.37;;;2.93;;
20609;SDS011;10463;52.378;9.688;2024-02-15T15:18:09;3.33;;;2.73;;
20609;SDS011;10463;52.378;9.688;2024-02-15T15:20:55;4.23;;;2.67;;
20609;SDS011;10463;52.378;9.688;2024-02-15T15:23:39;3.40;;;2.50;;
20609;SDS011;10463;52.378;9.688;2024-02-15T15:26:26;4.03;;;2.90;;
20609;SDS011;10463;52.378;9.688;2024-02-15T15:29:10;4.30;;;3.07;;
20609;SDS011;10463;52.378;9.688;2024-02-15T15:31:55;3.47;;;2.80;;
20609;SDS011;10463;52.378;9.688;2024-02-15T15:34:43;4.03;;;3.10;;
20609;SDS011;10463;52.378;9.688;2024-02-15T15:37:27;4.20;;;3.13;;
20609;SDS011;10463;52.378;9.688;2024-02-15T15:40:12;3.40;;;2.50;;
20609;SDS011;10463;52.378;9.688;2024-02-15T15:42:57;4.33;;;3.40;;
20609;SDS011;10463;52.378;9.688;2024-02-15T15:45:42;3.83;;;3.10;;
20609;SDS011;10463;52.378;9.688;2024-02-15T15:48:28;4.23;;;2.83;;
20609;SDS011;10463;52.378;9.688;2024-02-15T15:51:14;4.63;;;3.30;;
20609;SDS011;10463;52.378;9.688;2024-02-15T15:53:58;4.23;;;3.57;;
20609;SDS011;10463;52.378;9.688;2024-02-15T15:56:43;5.17;;;3.60;;
20609;SDS011;10463;52.378;9.688;2024-02-15T15:59:27;4.23;;;3.07;;
20609;SDS011;10463;52.378;9.688;2024-02-15T16:02:12;6.50;;;3.93;;
20609;SDS011;10463;52.378;9.688;2024-02-15T16:04:56;5.37;;;3.97;;
20609;SDS011;10463;52.378;9.688;2024-02-15T16:07:43;4.63;;;3.57;;
20609;SDS011;10463;52.378;9.688;2024-02-15T16:10:28;3.93;;;3.33;;
20609;SDS011;10463;52.378;9.688;2024-02-15T16:13:13;3.83;;;3.13;;
20609;SDS011;10463;52.378;9.688;2024-02-15T16:15:57;4.93;;;4.03;;
20609;SDS011;10463;52.378;9.688;2024-02-15T16:18:42;6.23;;;4.00;;
20609;SDS011;10463;52.378;9.688;2024-02-15T16:21:27;6.40;;;3.83;;
20609;SDS011;10463;52.378;9.688;2024-02-15T16:24:13;5.30;;;4.17;;
20609;SDS011;10463;52.378;9.688;2024-02-15T16:26:58;4.53;;;3.73;;
20609;SDS011;10463;52.378;9.688;2024-02-15T16:29:42;4.83;;;3.87;;
20609;SDS011;10463;52.378;9.688;2024-02-15T16:32:27;5.00;;;3.80;;
20609;SDS011;10463;52.378;9.688;2024-02-15T16:35:12;4.33;;;3.57;;
20609;SDS011;10463;52.378;9.688;2024-02-15T16:37:58;4.77;;;3.63;;
20609;SDS011;10463;52.378;9.688;2024-02-15T16:40:44;4.73;;;4.20;;
20609;SDS011;10463;52.378;9.688;2024-02-15T16:43:29;6.37;;;4.27;;
20609;SDS011;10463;52.378;9.688;2024-02-15T16:46:13;6.77;;;4.27;;
20609;SDS011;10463;52.378;9.688;2024-02-15T16:48:58;5.27;;;4.13;;
20609;SDS011;10463;52.378;9.688;2024-02-15T16:51:43;5.13;;;4.60;;